SWA3935 KSAT-KHOU
Flight info
| Callsign | SWA3935 |
|---|---|
| Flight time | N/A |
| Altitude | 25000 |
| Route | SNIDR2 WEMAR BELLR6 |
| Aircraft | B737/M-SADE2E3GIJ4RWZ/LB1D1 |
Departure
| Time | 2026-04-25 05:31 |
|---|---|
| Airport | San Antonio International Airport (KSAT) |
Arrival
| Time | N/A |
|---|---|
| Airport | William P. Hobby Airport (KHOU) |
| Time | Latitude | Longitude | Altitude | Speed | Heading |
|---|---|---|---|---|---|
| 2026-04-25 05:18 | 29.52800 | -98.47040 | 799 ft | 0 kts | 168° |
| 2026-04-25 05:25 | 29.52802 | -98.47040 | 799 ft | 1 kts | 168° |
| 2026-04-25 05:25 | 29.52818 | -98.47045 | 799 ft | 3 kts | 154° |
| 2026-04-25 05:26 | 29.52833 | -98.47057 | 799 ft | 3 kts | 122° |
| 2026-04-25 05:26 | 29.52839 | -98.47074 | 799 ft | 3 kts | 71° |
| 2026-04-25 05:26 | 29.52836 | -98.47082 | 799 ft | 0 kts | 53° |
| 2026-04-25 05:28 | 29.52837 | -98.47080 | 799 ft | 1 kts | 53° |
| 2026-04-25 05:28 | 29.52845 | -98.47070 | 799 ft | 3 kts | 44° |
| 2026-04-25 05:28 | 29.52894 | -98.47048 | 799 ft | 15 kts | 11° |
| 2026-04-25 05:29 | 29.53020 | -98.47129 | 799 ft | 29 kts | 311° |
| 2026-04-25 05:29 | 29.53181 | -98.47339 | 797 ft | 38 kts | 311° |
| 2026-04-25 05:29 | 29.53358 | -98.47568 | 797 ft | 38 kts | 311° |
| 2026-04-25 05:29 | 29.53529 | -98.47790 | 797 ft | 36 kts | 311° |
| 2026-04-25 05:30 | 29.53693 | -98.48004 | 797 ft | 35 kts | 312° |
| 2026-04-25 05:30 | 29.53830 | -98.48177 | 797 ft | 20 kts | 312° |
| 2026-04-25 05:30 | 29.53938 | -98.48178 | 797 ft | 19 kts | 60° |
| 2026-04-25 05:30 | 29.53871 | -98.48036 | 797 ft | 43 kts | 132° |
| 2026-04-25 05:31 | 29.53414 | -98.47450 | 797 ft | 150 kts | 132° |
| 2026-04-25 05:31 | 29.52579 | -98.46335 | 1351 ft | 195 kts | 127° |
| 2026-04-25 05:31 | 29.52020 | -98.44936 | 2867 ft | 190 kts | 112° |
| 2026-04-25 05:31 | 29.51756 | -98.43405 | 4166 ft | 198 kts | 88° |
| 2026-04-25 05:32 | 29.52176 | -98.41913 | 5266 ft | 200 kts | 60° |
| 2026-04-25 05:32 | 29.53056 | -98.40593 | 6038 ft | 215 kts | 48° |
| 2026-04-25 05:32 | 29.54124 | -98.39282 | 6541 ft | 235 kts | 47° |
| 2026-04-25 05:32 | 29.55174 | -98.37760 | 7145 ft | 257 kts | 57° |
| 2026-04-25 05:33 | 29.55954 | -98.35755 | 7519 ft | 291 kts | 73° |
| 2026-04-25 05:33 | 29.56379 | -98.33448 | 8452 ft | 299 kts | 79° |
| 2026-04-25 05:33 | 29.56706 | -98.31063 | 9486 ft | 306 kts | 81° |
| 2026-04-25 05:33 | 29.57026 | -98.28611 | 10353 ft | 319 kts | 80° |
| 2026-04-25 05:34 | 29.57405 | -98.25984 | 10664 ft | 350 kts | 79° |
| 2026-04-25 05:34 | 29.57859 | -98.23152 | 11176 ft | 368 kts | 78° |
| 2026-04-25 05:34 | 29.58361 | -98.20242 | 12036 ft | 374 kts | 78° |
| 2026-04-25 05:34 | 29.58892 | -98.17308 | 12975 ft | 378 kts | 77° |
| 2026-04-25 05:35 | 29.59443 | -98.14338 | 13853 ft | 383 kts | 77° |
| 2026-04-25 05:35 | 29.60010 | -98.11322 | 14635 ft | 389 kts | 77° |
| 2026-04-25 05:35 | 29.60588 | -98.08262 | 15439 ft | 394 kts | 77° |
| 2026-04-25 05:35 | 29.61173 | -98.05171 | 16234 ft | 400 kts | 77° |
| 2026-04-25 05:36 | 29.61767 | -98.02024 | 17023 ft | 405 kts | 77° |
| 2026-04-25 05:36 | 29.62367 | -97.98838 | 17767 ft | 411 kts | 77° |
| 2026-04-25 05:36 | 29.62974 | -97.95611 | 18461 ft | 417 kts | 77° |
| 2026-04-25 05:36 | 29.63589 | -97.92337 | 19108 ft | 422 kts | 76° |
| 2026-04-25 05:37 | 29.64212 | -97.89014 | 19776 ft | 427 kts | 76° |
| 2026-04-25 05:37 | 29.64842 | -97.85650 | 20451 ft | 433 kts | 76° |
| 2026-04-25 05:37 | 29.65389 | -97.82232 | 21093 ft | 439 kts | 82° |
| 2026-04-25 05:37 | 29.65544 | -97.78698 | 21718 ft | 445 kts | 88° |
| 2026-04-25 05:38 | 29.65564 | -97.75122 | 22342 ft | 451 kts | 89° |
| 2026-04-25 05:38 | 29.65554 | -97.71503 | 22934 ft | 456 kts | 89° |
| 2026-04-25 05:38 | 29.65547 | -97.67831 | 23498 ft | 461 kts | 89° |
| 2026-04-25 05:38 | 29.65556 | -97.64173 | 23981 ft | 466 kts | 88° |
| 2026-04-25 05:39 | 29.65579 | -97.60430 | 24482 ft | 470 kts | 88° |
| 2026-04-25 05:39 | 29.65611 | -97.56657 | 24780 ft | 473 kts | 88° |
| 2026-04-25 05:39 | 29.65647 | -97.52874 | 24780 ft | 474 kts | 88° |
| 2026-04-25 05:39 | 29.65684 | -97.49091 | 24785 ft | 473 kts | 88° |
| 2026-04-25 05:40 | 29.65720 | -97.45311 | 24794 ft | 473 kts | 88° |
| 2026-04-25 05:40 | 29.65755 | -97.41525 | 24795 ft | 474 kts | 88° |
| 2026-04-25 05:40 | 29.65787 | -97.37739 | 24787 ft | 474 kts | 88° |
| 2026-04-25 05:40 | 29.65818 | -97.33952 | 24795 ft | 474 kts | 88° |
| 2026-04-25 05:41 | 29.65848 | -97.30166 | 24794 ft | 474 kts | 88° |
| 2026-04-25 05:41 | 29.65877 | -97.26367 | 24796 ft | 474 kts | 88° |
| 2026-04-25 05:41 | 29.65903 | -97.22579 | 24791 ft | 474 kts | 88° |
| 2026-04-25 05:41 | 29.65923 | -97.18789 | 24793 ft | 474 kts | 88° |
| 2026-04-25 05:42 | 29.65941 | -97.15004 | 24804 ft | 474 kts | 88° |
| 2026-04-25 05:42 | 29.65957 | -97.11222 | 24794 ft | 473 kts | 88° |
| 2026-04-25 05:42 | 29.65974 | -97.07436 | 24789 ft | 473 kts | 88° |
| 2026-04-25 05:42 | 29.65989 | -97.03651 | 24782 ft | 473 kts | 89° |
| 2026-04-25 05:43 | 29.65677 | -96.99949 | 24774 ft | 474 kts | 105° |
| 2026-04-25 05:43 | 29.64571 | -96.96539 | 24795 ft | 472 kts | 114° |
| 2026-04-25 05:43 | 29.63268 | -96.93072 | 24779 ft | 472 kts | 114° |
| 2026-04-25 05:43 | 29.61964 | -96.89608 | 24785 ft | 472 kts | 114° |
| 2026-04-25 05:44 | 29.60675 | -96.86146 | 24796 ft | 472 kts | 114° |
| 2026-04-25 05:44 | 29.59397 | -96.82665 | 24781 ft | 472 kts | 114° |
| 2026-04-25 05:44 | 29.58132 | -96.79181 | 24770 ft | 472 kts | 113° |
| 2026-04-25 05:44 | 29.56874 | -96.75699 | 24768 ft | 473 kts | 113° |
| 2026-04-25 05:45 | 29.55600 | -96.72172 | 24784 ft | 484 kts | 113° |
| 2026-04-25 05:45 | 29.54300 | -96.68574 | 24768 ft | 485 kts | 113° |
| 2026-04-25 05:45 | 29.53032 | -96.65067 | 24751 ft | 464 kts | 113° |
| 2026-04-25 05:45 | 29.51819 | -96.61717 | 24744 ft | 446 kts | 113° |
| 2026-04-25 05:46 | 29.50652 | -96.58499 | 24750 ft | 428 kts | 114° |
| 2026-04-25 05:46 | 29.49903 | -96.56436 | 24744 ft | 417 kts | 114° |
| 2026-04-25 05:46 | 29.48806 | -96.53420 | 24728 ft | 402 kts | 114° |
| 2026-04-25 05:46 | 29.47750 | -96.50517 | 24728 ft | 388 kts | 114° |
| 2026-04-25 05:47 | 29.46729 | -96.47714 | 24726 ft | 374 kts | 114° |
| 2026-04-25 05:47 | 29.45741 | -96.45005 | 24744 ft | 361 kts | 114° |
| 2026-04-25 05:47 | 29.44786 | -96.42391 | 24751 ft | 349 kts | 114° |
| 2026-04-25 05:47 | 29.43862 | -96.39864 | 24771 ft | 337 kts | 114° |
| 2026-04-25 05:48 | 29.42971 | -96.37427 | 24764 ft | 326 kts | 114° |
| 2026-04-25 05:48 | 29.42107 | -96.35068 | 24772 ft | 317 kts | 114° |
| 2026-04-25 05:48 | 29.41257 | -96.32747 | 24741 ft | 317 kts | 114° |
| 2026-04-25 05:48 | 29.40388 | -96.30377 | 24524 ft | 328 kts | 114° |
| 2026-04-25 05:49 | 29.39498 | -96.27952 | 24238 ft | 331 kts | 114° |
| 2026-04-25 05:49 | 29.38606 | -96.25519 | 23957 ft | 331 kts | 114° |
| 2026-04-25 05:49 | 29.37711 | -96.23081 | 23588 ft | 335 kts | 114° |
| 2026-04-25 05:49 | 29.36798 | -96.20593 | 23108 ft | 341 kts | 114° |
| 2026-04-25 05:50 | 29.35871 | -96.18068 | 22605 ft | 346 kts | 114° |
| 2026-04-25 05:50 | 29.34930 | -96.15510 | 22106 ft | 351 kts | 114° |
| 2026-04-25 05:50 | 29.33981 | -96.12929 | 21848 ft | 347 kts | 113° |
| 2026-04-25 05:50 | 29.33400 | -96.10271 | 21449 ft | 348 kts | 90° |
| 2026-04-25 05:51 | 29.33782 | -96.07533 | 20773 ft | 353 kts | 67° |
| 2026-04-25 05:51 | 29.34980 | -96.05080 | 20099 ft | 356 kts | 49° |
| 2026-04-25 05:51 | 29.36498 | -96.02884 | 19822 ft | 350 kts | 47° |
| 2026-04-25 05:51 | 29.38054 | -96.00690 | 19186 ft | 358 kts | 47° |
| 2026-04-25 05:52 | 29.39554 | -95.98565 | 18752 ft | 359 kts | 48° |
| 2026-04-25 05:52 | 29.41107 | -95.96340 | 18426 ft | 356 kts | 48° |
| 2026-04-25 05:52 | 29.42643 | -95.94119 | 18053 ft | 354 kts | 49° |
| 2026-04-25 05:52 | 29.44165 | -95.91906 | 17669 ft | 353 kts | 49° |
| 2026-04-25 05:53 | 29.45678 | -95.89703 | 17286 ft | 350 kts | 49° |
| 2026-04-25 05:53 | 29.47101 | -95.87464 | 17044 ft | 345 kts | 60° |
| 2026-04-25 05:53 | 29.48002 | -95.84953 | 16885 ft | 338 kts | 68° |
| 2026-04-25 05:53 | 29.48794 | -95.82434 | 16313 ft | 343 kts | 69° |
| 2026-04-25 05:54 | 29.49605 | -95.79832 | 15709 ft | 350 kts | 69° |
| 2026-04-25 05:54 | 29.50436 | -95.77185 | 15131 ft | 355 kts | 69° |
| 2026-04-25 05:54 | 29.52131 | -95.71864 | 13957 ft | 353 kts | 69° |
| 2026-04-25 05:55 | 29.52979 | -95.69228 | 13345 ft | 351 kts | 69° |
| 2026-04-25 05:55 | 29.53823 | -95.66608 | 12723 ft | 349 kts | 69° |
| 2026-04-25 05:55 | 29.54661 | -95.64007 | 12105 ft | 346 kts | 69° |
| 2026-04-25 05:55 | 29.55494 | -95.61419 | 11496 ft | 344 kts | 69° |
| 2026-04-25 05:56 | 29.56321 | -95.58850 | 10901 ft | 342 kts | 70° |
| 2026-04-25 05:56 | 29.57138 | -95.56312 | 10300 ft | 337 kts | 70° |
| 2026-04-25 05:56 | 29.57943 | -95.53807 | 9734 ft | 332 kts | 70° |
| 2026-04-25 05:56 | 29.58734 | -95.51342 | 9112 ft | 327 kts | 70° |
| 2026-04-25 05:57 | 29.59514 | -95.48909 | 8500 ft | 322 kts | 70° |
| 2026-04-25 05:57 | 29.60279 | -95.46515 | 7775 ft | 320 kts | 70° |
| 2026-04-25 05:57 | 29.61024 | -95.44159 | 7454 ft | 306 kts | 69° |
| 2026-04-25 05:57 | 29.61739 | -95.41942 | 7305 ft | 287 kts | 69° |
| 2026-04-25 05:58 | 29.62410 | -95.39852 | 7160 ft | 270 kts | 69° |
| 2026-04-25 05:58 | 29.62734 | -95.37798 | 7010 ft | 258 kts | 93° |
| 2026-04-25 05:58 | 29.62545 | -95.35802 | 6884 ft | 245 kts | 95° |
| 2026-04-25 05:58 | 29.62352 | -95.33906 | 6741 ft | 234 kts | 95° |
| 2026-04-25 05:59 | 29.62169 | -95.32088 | 6595 ft | 224 kts | 95° |
| 2026-04-25 05:59 | 29.61995 | -95.30346 | 6451 ft | 215 kts | 94° |
| 2026-04-25 05:59 | 29.61830 | -95.28680 | 6331 ft | 204 kts | 94° |
| 2026-04-25 05:59 | 29.61675 | -95.27110 | 6210 ft | 194 kts | 94° |
| 2026-04-25 06:00 | 29.61529 | -95.25605 | 6086 ft | 187 kts | 94° |
| 2026-04-25 06:00 | 29.61385 | -95.24120 | 5961 ft | 188 kts | 94° |
| 2026-04-25 06:00 | 29.61239 | -95.22622 | 5829 ft | 189 kts | 95° |
| 2026-04-25 06:00 | 29.61092 | -95.21106 | 5653 ft | 194 kts | 96° |
| 2026-04-25 06:01 | 29.60942 | -95.19567 | 5400 ft | 193 kts | 97° |
| 2026-04-25 06:01 | 29.60794 | -95.18052 | 5152 ft | 189 kts | 98° |
| 2026-04-25 06:01 | 29.60648 | -95.16562 | 4906 ft | 186 kts | 98° |
| 2026-04-25 06:01 | 29.60504 | -95.15093 | 4674 ft | 184 kts | 99° |
| 2026-04-25 06:02 | 29.60229 | -95.13671 | 4417 ft | 181 kts | 106° |
| 2026-04-25 06:02 | 29.60310 | -95.12266 | 4161 ft | 182 kts | 66° |
| 2026-04-25 06:02 | 29.61143 | -95.11170 | 3953 ft | 188 kts | 41° |
| 2026-04-25 06:02 | 29.62137 | -95.10178 | 3727 ft | 190 kts | 41° |
| 2026-04-25 06:03 | 29.63131 | -95.09181 | 3468 ft | 189 kts | 42° |
| 2026-04-25 06:03 | 29.63801 | -95.08511 | 3302 ft | 189 kts | 42° |